createdAt,value
2023-02-22T00:01:35.139Z,14.52
2023-02-22T00:04:04.215Z,12.43
2023-02-22T00:06:32.569Z,7.75
2023-02-22T00:09:03.481Z,17.58
2023-02-22T00:11:32.311Z,15.77
2023-02-22T00:14:00.656Z,18.92
2023-02-22T00:16:30.957Z,16.75
2023-02-22T00:18:59.483Z,10.95
2023-02-22T00:21:27.697Z,18.35
2023-02-22T00:23:56.856Z,16.95
2023-02-22T00:26:26.924Z,22.08
2023-02-22T00:28:56.505Z,18.80
2023-02-22T00:31:24.911Z,22.95
2023-02-22T00:33:53.230Z,27.75
2023-02-22T00:36:21.467Z,21.02
2023-02-22T00:38:49.731Z,23.35
2023-02-22T00:41:18.303Z,20.75
2023-02-22T00:43:49.007Z,25.10
2023-02-22T00:46:17.470Z,30.00
2023-02-22T00:48:45.850Z,18.75
2023-02-22T00:51:14.688Z,30.90
2023-02-22T00:53:43.093Z,12.90
2023-02-22T00:56:11.705Z,18.05
2023-02-22T00:58:39.968Z,18.15
2023-02-22T01:01:09.795Z,25.52
2023-02-22T01:03:41.481Z,19.20
2023-02-22T01:06:10.041Z,19.88
2023-02-22T01:08:38.293Z,18.90
2023-02-22T01:11:06.760Z,23.98
2023-02-22T01:13:35.693Z,19.52
2023-02-22T01:16:04.086Z,22.63
2023-02-22T01:18:33.972Z,18.80
2023-02-22T01:21:02.602Z,28.48
2023-02-22T01:23:30.957Z,30.90
2023-02-22T01:25:59.434Z,21.33
2023-02-22T01:28:29.370Z,35.50
2023-02-22T01:30:57.772Z,26.40
2023-02-22T01:33:26.287Z,22.27
2023-02-22T01:35:56.014Z,31.02
2023-02-22T01:38:24.425Z,32.50
2023-02-22T01:40:53.233Z,35.03
2023-02-22T01:43:25.095Z,51.40
2023-02-22T01:46:02.292Z,41.40
2023-02-22T01:48:41.346Z,33.50
2023-02-22T01:51:15.541Z,40.38
2023-02-22T01:53:49.014Z,40.65
2023-02-22T01:56:19.502Z,39.42
2023-02-22T01:58:52.618Z,40.25
2023-02-22T02:01:25.032Z,49.38
2023-02-22T02:03:58.271Z,50.25
2023-02-22T02:06:29.941Z,50.65
2023-02-22T02:09:03.905Z,57.47
2023-02-22T02:11:33.771Z,58.97
2023-02-22T02:14:02.157Z,49.22
2023-02-22T02:16:39.178Z,46.05
2023-02-22T02:19:14.613Z,44.30
2023-02-22T02:22:17.185Z,47.05
2023-02-22T02:25:33.124Z,52.45
2023-02-22T02:28:54.914Z,52.92
2023-02-22T02:32:04.302Z,54.83
2023-02-22T02:34:36.886Z,46.63
2023-02-22T02:37:12.371Z,38.38
2023-02-22T02:39:49.932Z,46.90
2023-02-22T02:42:23.020Z,38.90
2023-02-22T02:44:56.665Z,57.50
2023-02-22T02:47:31.356Z,36.95
2023-02-22T02:50:10.219Z,46.33
2023-02-22T02:52:40.499Z,40.95
2023-02-22T02:55:11.388Z,29.25
2023-02-22T02:57:40.193Z,66.10
2023-02-22T03:00:22.401Z,65.57
2023-02-22T03:03:07.728Z,40.22
2023-02-22T03:05:57.361Z,44.33
2023-02-22T03:08:33.845Z,49.28
2023-02-22T03:11:15.266Z,44.67
2023-02-22T03:13:56.881Z,40.17
2023-02-22T03:16:34.240Z,38.33
2023-02-22T03:19:10.153Z,33.08
2023-02-22T03:21:47.003Z,34.85
2023-02-22T03:24:23.218Z,22.17
2023-02-22T03:26:58.261Z,38.97
2023-02-22T03:29:29.158Z,34.03
2023-02-22T03:32:01.571Z,35.90
2023-02-22T03:34:35.345Z,31.88
2023-02-22T03:37:10.138Z,22.15
2023-02-22T03:39:40.112Z,44.83
2023-02-22T03:42:11.654Z,17.35
2023-02-22T03:44:41.670Z,28.38
2023-02-22T03:47:15.522Z,30.48
2023-02-22T03:49:50.876Z,38.20
2023-02-22T03:52:19.838Z,36.53
2023-02-22T03:54:48.115Z,50.00
2023-02-22T03:57:23.658Z,25.52
2023-02-22T03:59:52.561Z,30.98
2023-02-22T04:02:21.100Z,29.10
2023-02-22T04:04:51.353Z,30.00
2023-02-22T04:07:20.287Z,29.92
2023-02-22T04:09:48.623Z,35.65
2023-02-22T04:12:17.170Z,32.03
2023-02-22T04:14:45.539Z,29.98
2023-02-22T04:17:13.816Z,50.42
2023-02-22T04:19:42.127Z,38.05
2023-02-22T04:22:11.973Z,27.60
2023-02-22T04:24:40.331Z,32.22
2023-02-22T04:27:08.632Z,38.33
2023-02-22T04:29:37.006Z,41.15
2023-02-22T04:32:06.040Z,26.23
2023-02-22T04:34:34.339Z,33.67
2023-02-22T04:37:03.613Z,36.05
2023-02-22T04:39:33.502Z,39.45
2023-02-22T04:42:01.804Z,45.72
2023-02-22T04:44:30.189Z,39.95
2023-02-22T04:46:58.706Z,28.73
2023-02-22T04:49:27.012Z,32.65
2023-02-22T04:51:55.362Z,38.92
2023-02-22T04:54:23.705Z,28.17
2023-02-22T04:56:53.516Z,45.92
2023-02-22T04:59:21.844Z,39.10
2023-02-22T05:01:50.109Z,36.10
2023-02-22T05:04:18.704Z,25.67
2023-02-22T05:06:47.953Z,25.13
2023-02-22T05:09:16.395Z,23.42
2023-02-22T05:11:44.637Z,18.15
2023-02-22T05:14:14.357Z,20.80
2023-02-22T05:16:42.881Z,26.13
2023-02-22T05:19:11.138Z,14.35
2023-02-22T05:21:40.354Z,14.50
2023-02-22T05:24:08.947Z,17.92
2023-02-22T05:26:37.220Z,24.67
2023-02-22T05:29:05.875Z,22.20
2023-02-22T05:31:35.737Z,18.42
2023-02-22T05:34:04.105Z,12.45
2023-02-22T05:36:32.358Z,14.05
2023-02-22T05:39:00.666Z,14.25
2023-02-22T05:41:30.057Z,9.10
2023-02-22T05:43:58.335Z,18.23
2023-02-22T05:46:26.608Z,8.27
2023-02-22T05:48:56.358Z,7.05
2023-02-22T05:51:24.666Z,7.15
2023-02-22T05:53:52.990Z,6.55
2023-02-22T05:56:26.044Z,12.10
2023-02-22T05:58:54.752Z,16.27
2023-02-22T06:01:24.021Z,9.52
2023-02-22T06:03:53.141Z,16.08
2023-02-22T06:06:23.016Z,11.02
2023-02-22T06:08:51.621Z,16.90
2023-02-22T06:11:20.651Z,10.73
2023-02-22T06:13:52.638Z,10.18
2023-02-22T06:16:22.288Z,10.13
2023-02-22T06:18:50.975Z,12.13
2023-02-22T06:21:19.391Z,11.25
2023-02-22T06:23:49.351Z,21.40
2023-02-22T06:26:21.045Z,24.08
2023-02-22T06:28:49.317Z,30.60
2023-02-22T06:31:17.975Z,20.50
2023-02-22T06:33:46.449Z,28.35
2023-02-22T06:36:14.761Z,17.48
2023-02-22T06:38:43.099Z,22.83
2023-02-22T06:41:12.884Z,22.27
2023-02-22T06:43:41.166Z,17.42
2023-02-22T06:46:12.189Z,22.77
2023-02-22T06:48:40.590Z,20.50
2023-02-22T06:51:10.398Z,20.50
2023-02-22T06:53:38.670Z,19.67
2023-02-22T06:56:07.744Z,21.33
2023-02-22T06:58:37.468Z,25.23
2023-02-22T07:01:07.993Z,14.13
2023-02-22T07:03:37.006Z,24.15
2023-02-22T07:06:09.153Z,26.38
2023-02-22T07:08:40.257Z,22.92
2023-02-22T07:11:11.288Z,20.10
2023-02-22T07:13:41.806Z,24.80
2023-02-22T07:16:10.102Z,27.10
2023-02-22T07:18:38.714Z,15.95
2023-02-22T07:21:09.690Z,20.70
2023-02-22T07:23:38.002Z,26.58
2023-02-22T07:26:07.147Z,20.60
2023-02-22T07:28:35.456Z,20.38
2023-02-22T07:31:05.594Z,18.08
2023-02-22T07:33:33.878Z,21.13
2023-02-22T07:36:02.097Z,26.88
2023-02-22T07:38:30.422Z,25.88
2023-02-22T07:40:58.950Z,36.72
2023-02-22T07:43:28.457Z,34.42
2023-02-22T07:45:57.738Z,17.30
2023-02-22T07:48:29.429Z,23.20
2023-02-22T07:50:57.981Z,25.20
2023-02-22T07:53:30.490Z,23.95
2023-02-22T07:55:59.912Z,12.52
2023-02-22T07:58:30.073Z,19.67
2023-02-22T08:00:58.759Z,18.52
2023-02-22T08:03:28.875Z,13.55
2023-02-22T08:06:03.448Z,25.73
2023-02-22T08:08:31.934Z,17.75
2023-02-22T08:11:03.143Z,11.27
2023-02-22T08:13:31.665Z,14.88
2023-02-22T08:16:00.180Z,9.35
2023-02-22T08:18:29.826Z,14.10
2023-02-22T08:20:58.128Z,15.75
2023-02-22T08:23:27.847Z,13.60
2023-02-22T08:26:05.774Z,9.55
2023-02-22T08:28:33.989Z,12.48
2023-02-22T08:31:02.263Z,8.88
2023-02-22T08:33:32.024Z,13.77
2023-02-22T08:36:01.657Z,10.02
2023-02-22T08:38:31.807Z,10.60
2023-02-22T08:41:03.101Z,10.32
2023-02-22T08:43:31.292Z,4.43
2023-02-22T08:46:02.631Z,17.40
2023-02-22T08:48:34.785Z,7.13
2023-02-22T08:51:03.202Z,9.88
2023-02-22T08:53:32.975Z,10.15
2023-02-22T08:56:01.178Z,9.60
2023-02-22T08:58:29.446Z,7.55
2023-02-22T09:00:58.043Z,6.22
2023-02-22T09:03:26.351Z,18.20
2023-02-22T09:05:56.385Z,8.63
2023-02-22T09:08:24.721Z,10.57
2023-02-22T09:10:53.204Z,4.95
2023-02-22T09:13:21.401Z,14.10
2023-02-22T09:15:49.654Z,11.18
2023-02-22T09:18:18.201Z,14.00
2023-02-22T09:20:46.473Z,14.98
2023-02-22T09:23:16.202Z,18.65
2023-02-22T09:25:44.475Z,27.50
2023-02-22T09:28:12.736Z,15.98
2023-02-22T09:30:41.328Z,25.38
2023-02-22T09:33:11.600Z,18.33
2023-02-22T09:35:42.580Z,19.08
2023-02-22T09:38:12.384Z,19.13
2023-02-22T09:40:46.836Z,17.98
2023-02-22T09:43:32.416Z,11.30
2023-02-22T09:46:13.491Z,26.25
2023-02-22T09:48:59.066Z,17.38
2023-02-22T09:51:31.449Z,14.35
2023-02-22T09:54:03.584Z,17.55
2023-02-22T09:56:35.093Z,24.88
2023-02-22T09:59:07.539Z,19.92
2023-02-22T10:01:41.638Z,17.13
2023-02-22T10:04:18.717Z,22.98
2023-02-22T10:07:06.063Z,17.48
2023-02-22T10:09:41.217Z,24.40
2023-02-22T10:12:15.988Z,14.32
2023-02-22T10:15:07.724Z,22.55
2023-02-22T10:17:41.476Z,17.88
2023-02-22T10:20:24.170Z,23.17
2023-02-22T10:23:12.187Z,19.73
2023-02-22T10:25:43.704Z,20.90
2023-02-22T10:28:18.812Z,21.08
2023-02-22T10:30:54.929Z,19.95
2023-02-22T10:33:26.585Z,19.85
2023-02-22T10:35:56.356Z,22.48
2023-02-22T10:38:34.301Z,20.90
2023-02-22T10:41:17.546Z,22.83
2023-02-22T10:43:47.601Z,18.10
2023-02-22T10:46:20.538Z,25.83
2023-02-22T10:48:52.669Z,20.30
2023-02-22T10:51:21.354Z,25.27
2023-02-22T10:53:59.964Z,25.50
2023-02-22T10:56:29.319Z,26.52
2023-02-22T10:59:02.584Z,23.35
2023-02-22T11:01:38.369Z,25.95
2023-02-22T11:04:14.418Z,33.45
2023-02-22T11:06:45.065Z,27.63
2023-02-22T11:09:18.113Z,30.73
2023-02-22T11:11:47.893Z,25.58
2023-02-22T11:14:30.031Z,25.27
2023-02-22T11:16:59.684Z,35.97
2023-02-22T11:19:29.507Z,29.55
2023-02-22T11:22:00.497Z,28.90
2023-02-22T11:24:43.622Z,25.73
2023-02-22T11:27:26.862Z,24.30
2023-02-22T11:30:00.440Z,25.55
2023-02-22T11:32:28.769Z,28.85
2023-02-22T11:35:35.431Z,30.85
2023-02-22T11:38:17.604Z,32.33
2023-02-22T11:40:46.439Z,33.85
2023-02-22T11:43:18.295Z,33.28
2023-02-22T11:46:02.477Z,24.40
2023-02-22T11:48:34.819Z,25.77
2023-02-22T11:51:22.035Z,23.98
2023-02-22T11:54:19.426Z,25.33
2023-02-22T11:56:51.430Z,28.85
2023-02-22T11:59:34.530Z,24.40
2023-02-22T12:02:30.520Z,28.02
2023-02-22T12:05:09.138Z,27.73
2023-02-22T12:07:51.121Z,24.40
2023-02-22T12:10:32.317Z,26.17
2023-02-22T12:13:17.146Z,21.92
2023-02-22T12:15:52.463Z,25.98
2023-02-22T12:18:31.534Z,21.48
2023-02-22T12:21:03.286Z,24.33
2023-02-22T12:23:44.877Z,27.55
2023-02-22T12:26:17.178Z,21.85
2023-02-22T12:28:49.790Z,28.00
2023-02-22T12:31:25.321Z,20.52
2023-02-22T12:34:02.350Z,31.05
2023-02-22T12:36:37.162Z,23.85
2023-02-22T12:39:23.316Z,20.33
2023-02-22T12:41:56.119Z,23.48
2023-02-22T12:44:30.085Z,19.80
2023-02-22T12:47:01.588Z,21.50
2023-02-22T12:49:37.276Z,22.95
2023-02-22T12:52:21.405Z,21.67
2023-02-22T12:54:57.315Z,20.58
2023-02-22T12:57:38.505Z,18.70
2023-02-22T13:00:17.156Z,20.10
2023-02-22T13:02:49.243Z,18.30
2023-02-22T13:05:20.906Z,22.30
2023-02-22T13:08:01.946Z,21.08
2023-02-22T13:10:41.738Z,23.00
2023-02-22T13:13:18.668Z,20.20
2023-02-22T13:15:55.059Z,21.55
2023-02-22T13:18:33.707Z,22.27
2023-02-22T13:21:13.225Z,25.13
2023-02-22T13:23:45.604Z,23.63
2023-02-22T13:26:20.081Z,28.25
2023-02-22T13:28:52.620Z,27.13
2023-02-22T13:31:39.973Z,22.27
2023-02-22T13:34:32.269Z,19.30
2023-02-22T13:37:28.805Z,21.05
2023-02-22T13:40:23.596Z,21.75
2023-02-22T13:43:16.755Z,26.23
2023-02-22T13:46:03.571Z,23.23
2023-02-22T13:49:08.705Z,25.23
2023-02-22T13:51:48.170Z,20.38
2023-02-22T13:54:29.891Z,21.73
2023-02-22T13:56:58.958Z,20.15
2023-02-22T13:59:35.105Z,17.23
2023-02-22T14:02:07.968Z,17.17
2023-02-22T14:04:39.918Z,20.85
2023-02-22T14:07:56.738Z,18.67
2023-02-22T14:10:49.505Z,19.33
2023-02-22T14:13:19.159Z,19.33
2023-02-22T14:16:20.992Z,19.55
2023-02-22T14:18:51.834Z,20.23
2023-02-22T14:21:21.697Z,21.52
2023-02-22T14:23:51.752Z,16.02
2023-02-22T14:26:27.843Z,13.75
2023-02-22T14:29:02.881Z,13.00
2023-02-22T14:31:36.891Z,15.27
2023-02-22T14:34:13.318Z,17.50
2023-02-22T14:36:48.364Z,14.25
2023-02-22T14:39:26.212Z,15.70
2023-02-22T14:42:08.065Z,23.42
2023-02-22T14:44:41.563Z,17.85
2023-02-22T14:47:20.361Z,18.02
2023-02-22T14:49:54.930Z,18.15
2023-02-22T14:52:26.363Z,27.30
2023-02-22T14:55:04.437Z,18.17
2023-02-22T14:57:53.771Z,16.40
2023-02-22T15:00:31.076Z,17.63
2023-02-22T15:03:02.338Z,19.83
2023-02-22T15:05:38.656Z,14.40
2023-02-22T15:08:08.957Z,20.95
2023-02-22T15:10:43.836Z,19.65
2023-02-22T15:13:20.594Z,23.13
2023-02-22T15:15:50.656Z,21.85
2023-02-22T15:18:30.220Z,19.83
2023-02-22T15:21:06.824Z,20.58
2023-02-22T15:23:43.165Z,18.88
2023-02-22T15:26:19.356Z,13.07
2023-02-22T15:28:49.266Z,21.08
2023-02-22T15:31:24.294Z,20.98
2023-02-22T15:33:54.960Z,19.08
2023-02-22T15:36:27.567Z,15.10
2023-02-22T15:38:57.043Z,23.73
2023-02-22T15:41:29.679Z,27.75
2023-02-22T15:44:17.541Z,18.15
2023-02-22T15:46:51.282Z,20.45
2023-02-22T15:49:26.241Z,15.88
2023-02-22T15:52:07.931Z,18.50
2023-02-22T15:54:45.741Z,22.08
2023-02-22T15:57:20.034Z,21.60
2023-02-22T15:59:54.055Z,17.52
2023-02-22T16:02:34.409Z,26.30
2023-02-22T16:05:08.241Z,21.23
2023-02-22T16:07:42.037Z,22.70
2023-02-22T16:10:27.509Z,22.70
2023-02-22T16:13:07.687Z,22.33
2023-02-22T16:15:38.436Z,19.70
2023-02-22T16:18:26.062Z,19.50
2023-02-22T16:21:03.418Z,21.88
2023-02-22T16:23:33.801Z,60.03
2023-02-22T16:26:19.771Z,29.50
2023-02-22T16:28:53.601Z,28.95
2023-02-22T16:31:26.476Z,33.45
2023-02-22T16:33:56.042Z,42.70
2023-02-22T16:36:38.477Z,30.40
2023-02-22T16:39:08.342Z,35.80
2023-02-22T16:41:36.660Z,21.98
2023-02-22T16:44:07.885Z,23.75
2023-02-22T16:46:38.171Z,25.40
2023-02-22T16:49:07.119Z,20.05
2023-02-22T16:51:42.720Z,33.97
2023-02-22T16:54:14.809Z,28.88
2023-02-22T16:56:43.312Z,21.35
2023-02-22T16:59:14.350Z,30.50
2023-02-22T17:01:50.377Z,25.55
2023-02-22T17:04:27.551Z,23.30
2023-02-22T17:07:05.327Z,23.30
2023-02-22T17:09:34.669Z,23.73
2023-02-22T17:12:03.871Z,19.08
2023-02-22T17:14:36.592Z,30.90
2023-02-22T17:17:06.290Z,26.63
2023-02-22T17:19:36.750Z,28.88
2023-02-22T17:22:09.886Z,19.63
2023-02-22T17:24:39.276Z,28.92
2023-02-22T17:27:07.540Z,30.85
2023-02-22T17:29:35.949Z,24.45
2023-02-22T17:32:06.258Z,18.33
2023-02-22T17:34:34.704Z,31.85
2023-02-22T17:37:06.042Z,38.85
2023-02-22T17:39:34.266Z,26.27
2023-02-22T17:42:02.508Z,20.88
2023-02-22T17:44:31.797Z,22.73
2023-02-22T17:47:00.329Z,28.98
2023-02-22T17:49:30.180Z,30.58
2023-02-22T17:51:58.673Z,29.65
2023-02-22T17:54:30.950Z,29.60
2023-02-22T17:57:02.055Z,23.42
2023-02-22T17:59:30.440Z,23.38
2023-02-22T18:02:03.320Z,30.77
2023-02-22T18:04:36.848Z,25.92
2023-02-22T18:07:05.510Z,27.92
2023-02-22T18:09:34.163Z,28.98
2023-02-22T18:12:02.576Z,24.67
2023-02-22T18:14:30.934Z,32.97
2023-02-22T18:17:02.254Z,32.33
2023-02-22T18:19:30.583Z,42.20
2023-02-22T18:22:03.133Z,21.70
2023-02-22T18:24:36.497Z,28.02
2023-02-22T18:27:12.235Z,31.60
2023-02-22T18:29:41.050Z,32.97
2023-02-22T18:32:13.456Z,31.58
2023-02-22T18:34:45.094Z,27.92
2023-02-22T18:37:20.814Z,27.50
2023-02-22T18:39:49.317Z,29.80
2023-02-22T18:42:18.113Z,20.83
2023-02-22T18:44:49.319Z,28.27
2023-02-22T18:47:22.045Z,30.88
2023-02-22T18:49:50.489Z,30.23
2023-02-22T18:52:20.439Z,38.42
2023-02-22T18:54:50.903Z,33.33
2023-02-22T18:57:22.237Z,27.60
2023-02-22T18:59:50.758Z,23.85
2023-02-22T19:02:21.415Z,43.25
2023-02-22T19:04:55.884Z,25.20
2023-02-22T19:07:26.324Z,23.17
2023-02-22T19:09:54.683Z,37.10
2023-02-22T19:12:23.581Z,35.85
2023-02-22T19:14:52.186Z,32.53
2023-02-22T19:17:23.527Z,26.98
2023-02-22T19:19:52.042Z,30.23
2023-02-22T19:22:20.668Z,34.65
2023-02-22T19:24:55.173Z,26.63
2023-02-22T19:27:23.559Z,39.45
2023-02-22T19:29:55.121Z,36.83
2023-02-22T19:32:26.922Z,31.55
2023-02-22T19:35:02.251Z,37.85
2023-02-22T19:37:34.159Z,30.35
2023-02-22T19:40:06.988Z,31.98
2023-02-22T19:42:35.519Z,31.77
2023-02-22T19:45:04.021Z,39.13
2023-02-22T19:47:33.212Z,42.47
2023-02-22T19:50:05.238Z,27.58
2023-02-22T19:52:34.323Z,20.75
2023-02-22T19:55:06.923Z,28.88
2023-02-22T19:57:35.497Z,27.20
2023-02-22T20:00:11.971Z,28.73
2023-02-22T20:02:41.176Z,31.52
2023-02-22T20:05:16.271Z,27.55
2023-02-22T20:07:47.574Z,30.50
2023-02-22T20:10:20.601Z,39.13
2023-02-22T20:12:54.594Z,30.98
2023-02-22T20:15:24.075Z,37.63
2023-02-22T20:17:55.463Z,49.70
2023-02-22T20:20:24.277Z,49.60
2023-02-22T20:22:52.732Z,45.38
2023-02-22T20:25:28.434Z,35.85
2023-02-22T20:28:00.800Z,31.42
2023-02-22T20:30:29.227Z,30.42
2023-02-22T20:32:57.804Z,28.80
2023-02-22T20:35:28.003Z,37.55
2023-02-22T20:37:59.254Z,37.80
2023-02-22T20:40:32.047Z,42.67
2023-02-22T20:43:00.462Z,36.15
2023-02-22T20:45:28.749Z,35.35
2023-02-22T20:47:57.148Z,27.05
2023-02-22T20:50:31.778Z,26.38
2023-02-22T20:53:00.580Z,29.00
2023-02-22T20:55:28.940Z,29.67
2023-02-22T20:57:58.741Z,28.52
2023-02-22T21:00:30.221Z,23.80
2023-02-22T21:02:58.668Z,30.95
2023-02-22T21:05:29.464Z,29.95
2023-02-22T21:07:58.590Z,31.50
2023-02-22T21:10:27.420Z,45.92
2023-02-22T21:12:56.935Z,38.03
2023-02-22T21:15:28.623Z,27.98
2023-02-22T21:17:57.928Z,32.42
2023-02-22T21:20:26.187Z,23.58
2023-02-22T21:22:57.096Z,43.05
2023-02-22T21:25:29.676Z,32.97
2023-02-22T21:27:58.152Z,33.90
2023-02-22T21:30:28.515Z,27.90
2023-02-22T21:32:57.105Z,32.85
2023-02-22T21:35:26.693Z,29.35
2023-02-22T21:37:55.148Z,30.23
2023-02-22T21:40:28.974Z,26.50
2023-02-22T21:42:57.287Z,23.92
2023-02-22T21:45:26.228Z,23.77
2023-02-22T21:47:56.363Z,23.50
2023-02-22T21:50:25.669Z,25.80
2023-02-22T21:52:58.127Z,34.50
2023-02-22T21:55:26.528Z,23.88
2023-02-22T21:57:54.784Z,21.38
2023-02-22T22:00:29.384Z,23.58
2023-02-22T22:03:08.057Z,19.75
2023-02-22T22:05:39.776Z,22.13
2023-02-22T22:08:08.506Z,25.50
2023-02-22T22:10:37.970Z,24.67
2023-02-22T22:13:09.178Z,24.02
2023-02-22T22:15:37.665Z,24.63
2023-02-22T22:18:11.790Z,20.77
2023-02-22T22:20:40.388Z,23.77
2023-02-22T22:23:09.148Z,24.17
2023-02-22T22:25:38.424Z,23.30
2023-02-22T22:28:07.890Z,21.98
2023-02-22T22:30:37.395Z,24.23
2023-02-22T22:33:11.383Z,22.52
2023-02-22T22:35:41.949Z,22.95
2023-02-22T22:38:10.710Z,22.90
2023-02-22T22:40:39.811Z,19.77
2023-02-22T22:43:08.837Z,21.90
2023-02-22T22:45:38.331Z,21.02
2023-02-22T22:48:08.831Z,21.23
2023-02-22T22:50:37.853Z,19.58
2023-02-22T22:53:06.270Z,20.65
2023-02-22T22:55:35.551Z,19.50
2023-02-22T22:58:03.915Z,18.75
2023-02-22T23:00:37.258Z,21.42
2023-02-22T23:03:09.050Z,21.63
2023-02-22T23:05:39.287Z,22.48
2023-02-22T23:08:10.851Z,20.85
2023-02-22T23:10:40.410Z,23.10
2023-02-22T23:13:10.582Z,23.35
2023-02-22T23:15:43.343Z,22.55
2023-02-22T23:18:15.008Z,22.80
2023-02-22T23:20:44.646Z,23.05
2023-02-22T23:23:14.891Z,19.92
2023-02-22T23:25:43.351Z,19.02
2023-02-22T23:28:14.917Z,19.02
2023-02-22T23:30:46.366Z,16.42
2023-02-22T23:33:16.350Z,24.83
2023-02-22T23:35:49.288Z,19.15
2023-02-22T23:38:17.589Z,27.58
2023-02-22T23:40:46.228Z,25.00
2023-02-22T23:43:17.033Z,22.98
2023-02-22T23:45:47.825Z,21.80
2023-02-22T23:48:20.694Z,21.88
2023-02-22T23:50:49.411Z,25.98
2023-02-22T23:53:17.847Z,20.05
2023-02-22T23:55:46.136Z,24.83
2023-02-22T23:58:14.473Z,20.90
